createdAt,value
2018-02-09T00:02:04.570Z,85.03
2018-02-09T00:04:32.024Z,76.50
2018-02-09T00:06:59.481Z,82.33
2018-02-09T00:09:26.942Z,74.00
2018-02-09T00:11:54.402Z,76.93
2018-02-09T00:14:21.861Z,79.87
2018-02-09T00:16:49.305Z,72.67
2018-02-09T00:19:16.769Z,80.43
2018-02-09T00:21:44.217Z,76.43
2018-02-09T00:24:11.673Z,78.90
2018-02-09T00:26:39.129Z,78.10
2018-02-09T00:29:06.589Z,75.27
2018-02-09T00:31:34.049Z,76.00
2018-02-09T00:34:01.511Z,79.80
2018-02-09T00:36:28.969Z,79.37
2018-02-09T00:38:57.192Z,72.13
2018-02-09T00:41:24.682Z,70.10
2018-02-09T00:43:52.143Z,75.77
2018-02-09T00:46:19.597Z,69.97
2018-02-09T00:48:47.098Z,75.03
2018-02-09T00:51:14.516Z,77.87
2018-02-09T00:53:41.980Z,74.13
2018-02-09T00:56:09.434Z,74.90
2018-02-09T00:58:36.901Z,79.97
2018-02-09T01:01:05.125Z,79.13
2018-02-09T01:03:32.581Z,69.40
2018-02-09T01:06:00.046Z,71.03
2018-02-09T01:08:27.503Z,73.17
2018-02-09T01:10:54.965Z,83.27
2018-02-09T01:13:22.424Z,73.43
2018-02-09T01:15:49.881Z,64.30
2018-02-09T01:18:17.341Z,67.63
2018-02-09T01:20:44.803Z,70.27
2018-02-09T01:23:12.258Z,69.67
2018-02-09T01:25:39.733Z,73.60
2018-02-09T01:28:07.187Z,80.07
2018-02-09T01:30:34.640Z,82.30
2018-02-09T01:33:02.093Z,77.73
2018-02-09T01:35:29.563Z,72.20
2018-02-09T01:37:57.010Z,80.50
2018-02-09T01:40:24.465Z,76.17
2018-02-09T01:42:51.926Z,81.53
2018-02-09T01:45:19.381Z,79.60
2018-02-09T01:47:46.841Z,76.80
2018-02-09T01:50:16.112Z,80.00
2018-02-09T01:52:43.579Z,77.27
2018-02-09T01:55:11.052Z,76.67
2018-02-09T01:57:38.511Z,75.57
2018-02-09T02:00:05.965Z,72.30
2018-02-09T02:02:33.419Z,69.73
2018-02-09T02:05:00.869Z,73.80
2018-02-09T02:07:28.329Z,70.80
2018-02-09T02:09:55.789Z,69.60
2018-02-09T02:12:23.253Z,72.23
2018-02-09T02:14:50.705Z,74.10
2018-02-09T02:17:18.164Z,75.20
2018-02-09T02:19:45.617Z,67.43
2018-02-09T02:22:13.078Z,73.37
2018-02-09T02:24:40.528Z,72.67
2018-02-09T02:27:07.993Z,76.37
2018-02-09T02:29:35.497Z,74.30
2018-02-09T02:32:02.950Z,65.20
2018-02-09T02:34:30.407Z,65.07
2018-02-09T02:36:57.866Z,68.10
2018-02-09T02:39:25.334Z,75.60
2018-02-09T02:41:52.789Z,68.13
2018-02-09T02:44:20.237Z,67.50
2018-02-09T02:46:47.754Z,71.50
2018-02-09T02:49:15.162Z,69.13
2018-02-09T02:51:42.630Z,69.20
2018-02-09T02:54:10.090Z,75.63
2018-02-09T02:56:37.545Z,72.33
2018-02-09T02:59:04.999Z,74.67
2018-02-09T03:01:32.458Z,69.70
2018-02-09T03:03:59.920Z,70.07
2018-02-09T03:06:27.378Z,65.70
2018-02-09T03:08:54.842Z,71.97
2018-02-09T03:11:22.305Z,76.47
2018-02-09T03:13:49.762Z,73.07
2018-02-09T03:16:17.210Z,76.63
2018-02-09T03:18:44.670Z,75.00
2018-02-09T03:21:12.128Z,73.87
2018-02-09T03:23:39.586Z,77.30
2018-02-09T03:26:07.036Z,69.97
2018-02-09T03:28:34.501Z,80.80
2018-02-09T03:31:01.954Z,73.67
2018-02-09T03:33:29.418Z,72.57
2018-02-09T03:35:56.864Z,73.53
2018-02-09T03:38:24.329Z,73.97
2018-02-09T03:40:51.785Z,68.93
2018-02-09T03:43:19.250Z,73.00
2018-02-09T03:45:46.697Z,70.17
2018-02-09T03:48:14.153Z,72.13
2018-02-09T03:50:41.614Z,71.90
2018-02-09T03:53:09.069Z,65.93
2018-02-09T03:55:36.525Z,73.07
2018-02-09T03:58:03.990Z,70.53
2018-02-09T04:00:31.446Z,74.30
2018-02-09T04:02:58.920Z,69.80
2018-02-09T04:05:27.136Z,73.90
2018-02-09T04:07:54.593Z,70.83
2018-02-09T04:10:22.057Z,66.00
2018-02-09T04:12:49.508Z,71.50
2018-02-09T04:17:50.793Z,68.00
2018-02-09T04:20:18.252Z,70.83
2018-02-09T04:22:45.703Z,70.83
2018-02-09T04:25:13.161Z,64.60
2018-02-09T04:27:40.617Z,65.07
2018-02-09T04:30:08.072Z,73.07
2018-02-09T04:32:35.529Z,71.07
2018-02-09T04:35:02.990Z,70.97
2018-02-09T04:37:30.449Z,78.83
2018-02-09T04:39:57.905Z,67.43
2018-02-09T04:42:25.356Z,81.53
2018-02-09T04:44:52.821Z,73.47
2018-02-09T04:47:20.273Z,72.23
2018-02-09T04:49:47.750Z,73.47
2018-02-09T04:52:15.189Z,73.80
2018-02-09T04:54:42.645Z,71.30
2018-02-09T04:57:10.099Z,71.30
2018-02-09T04:59:37.561Z,70.77
2018-02-09T05:02:05.019Z,69.97
2018-02-09T05:04:32.498Z,70.20
2018-02-09T05:07:00.717Z,76.73
2018-02-09T05:09:28.211Z,71.03
2018-02-09T05:11:55.662Z,78.97
2018-02-09T05:14:23.116Z,77.57
2018-02-09T05:16:50.573Z,64.53
2018-02-09T05:19:18.027Z,68.53
2018-02-09T05:21:45.493Z,69.73
2018-02-09T05:24:12.945Z,62.10
2018-02-09T05:26:40.422Z,67.53
2018-02-09T05:29:08.641Z,70.20
2018-02-09T05:31:36.101Z,72.07
2018-02-09T05:34:03.555Z,67.80
2018-02-09T05:36:31.013Z,68.87
2018-02-09T05:38:58.481Z,70.63
2018-02-09T05:41:25.941Z,64.50
2018-02-09T05:43:54.161Z,62.50
2018-02-09T05:46:22.389Z,70.43
2018-02-09T05:48:49.841Z,69.60
2018-02-09T05:51:17.301Z,63.53
2018-02-09T05:53:44.753Z,72.33
2018-02-09T05:56:12.213Z,69.17
2018-02-09T05:58:39.666Z,67.67
2018-02-09T06:01:07.129Z,77.50
2018-02-09T06:03:34.589Z,68.07
2018-02-09T06:06:02.054Z,67.30
2018-02-09T06:08:29.517Z,61.27
2018-02-09T06:10:56.980Z,69.43
2018-02-09T06:13:24.437Z,63.17
2018-02-09T06:15:51.901Z,66.50
2018-02-09T06:18:20.124Z,80.17
2018-02-09T06:20:47.620Z,72.37
2018-02-09T06:23:15.058Z,68.27
2018-02-09T06:25:42.515Z,68.50
2018-02-09T06:28:09.968Z,68.80
2018-02-09T06:30:37.428Z,71.33
2018-02-09T06:33:04.890Z,74.10
2018-02-09T06:35:32.341Z,66.40
2018-02-09T06:37:59.802Z,64.23
2018-02-09T06:40:27.248Z,63.90
2018-02-09T06:42:54.712Z,66.80
2018-02-09T06:45:22.239Z,68.00
2018-02-09T06:47:49.681Z,65.67
2018-02-09T06:50:17.136Z,67.17
2018-02-09T06:52:44.605Z,71.70
2018-02-09T06:55:12.064Z,64.00
2018-02-09T06:57:45.265Z,72.80
2018-02-09T07:00:12.764Z,63.67
2018-02-09T07:02:40.192Z,67.10
2018-02-09T07:05:07.651Z,82.47
2018-02-09T07:07:36.113Z,66.97
2018-02-09T07:10:03.565Z,70.23
2018-02-09T07:12:31.009Z,67.33
2018-02-09T07:14:58.470Z,53.40
2018-02-09T07:17:25.928Z,64.37
2018-02-09T07:19:53.400Z,72.07
2018-02-09T07:22:20.859Z,68.23
2018-02-09T07:24:48.325Z,68.57
2018-02-09T07:27:15.785Z,72.50
2018-02-09T07:29:44.005Z,79.23
2018-02-09T07:32:12.233Z,64.37
2018-02-09T07:34:39.701Z,86.33
2018-02-09T07:37:07.148Z,79.00
2018-02-09T07:39:34.612Z,65.47
2018-02-09T07:42:02.069Z,66.17
2018-02-09T07:44:29.546Z,68.73
2018-02-09T07:46:56.997Z,68.87
2018-02-09T07:49:24.462Z,67.77
2018-02-09T07:51:51.919Z,68.33
2018-02-09T07:54:19.372Z,76.63
2018-02-09T07:56:46.834Z,64.50
2018-02-09T07:59:14.299Z,70.33
2018-02-09T08:01:42.519Z,62.37
2018-02-09T08:04:09.985Z,63.17
2018-02-09T08:06:37.441Z,67.70
2018-02-09T08:09:04.912Z,67.43
2018-02-09T08:11:32.365Z,64.30
2018-02-09T08:13:59.830Z,63.50
2018-02-09T08:16:27.280Z,60.40
2018-02-09T08:18:54.744Z,61.17
2018-02-09T08:21:22.201Z,72.63
2018-02-09T08:23:49.661Z,67.40
2018-02-09T08:26:17.118Z,61.53
2018-02-09T08:28:44.646Z,63.57
2018-02-09T08:31:12.822Z,64.67
2018-02-09T08:33:40.268Z,64.80
2018-02-09T08:36:07.739Z,59.27
2018-02-09T08:38:35.189Z,62.60
2018-02-09T08:41:02.658Z,65.07
2018-02-09T08:43:30.118Z,58.83
2018-02-09T08:45:57.585Z,60.10
2018-02-09T08:48:25.037Z,56.67
2018-02-09T08:50:52.496Z,59.83
2018-02-09T08:53:19.958Z,61.17
2018-02-09T08:55:47.418Z,66.40
2018-02-09T08:58:14.881Z,68.10
2018-02-09T09:00:42.337Z,62.40
2018-02-09T09:03:09.793Z,70.77
2018-02-09T09:05:37.257Z,59.50
2018-02-09T09:08:05.483Z,60.07
2018-02-09T09:10:32.936Z,68.40
2018-02-09T09:13:00.425Z,63.90
2018-02-09T09:15:27.853Z,60.10
2018-02-09T09:17:55.306Z,65.90
2018-02-09T09:20:22.768Z,65.80
2018-02-09T09:22:50.229Z,60.17
2018-02-09T09:25:17.690Z,59.07
2018-02-09T09:27:45.142Z,60.00
2018-02-09T09:30:12.610Z,64.77
2018-02-09T09:32:40.071Z,59.63
2018-02-09T09:35:07.529Z,55.87
2018-02-09T09:37:34.984Z,56.97
2018-02-09T09:40:02.448Z,60.20
2018-02-09T09:42:29.903Z,58.20
2018-02-09T09:44:57.356Z,55.93
2018-02-09T09:47:24.813Z,51.13
2018-02-09T09:49:52.270Z,61.70
2018-02-09T09:52:19.727Z,60.20
2018-02-09T09:54:47.185Z,65.97
2018-02-09T09:57:14.644Z,65.00
2018-02-09T09:59:42.097Z,61.47
2018-02-09T10:04:59.296Z,62.33
2018-02-09T10:07:26.764Z,58.40
2018-02-09T10:09:54.217Z,63.47
2018-02-09T10:12:21.672Z,67.03
2018-02-09T10:14:49.132Z,58.23
2018-02-09T10:17:16.590Z,80.23
2018-02-09T10:19:44.048Z,69.57
2018-02-09T10:22:11.521Z,70.37
2018-02-09T10:24:38.972Z,62.77
2018-02-09T10:27:06.433Z,63.67
2018-02-09T10:29:33.890Z,74.63
2018-02-09T10:32:01.354Z,58.43
2018-02-09T10:34:28.805Z,61.53
2018-02-09T10:36:56.268Z,60.67
2018-02-09T10:39:23.720Z,58.40
2018-02-09T10:41:51.190Z,61.37
2018-02-09T10:44:18.641Z,60.93
2018-02-09T10:46:46.093Z,61.93
2018-02-09T10:49:13.556Z,55.37
2018-02-09T10:51:41.000Z,60.73
2018-02-09T10:54:08.461Z,57.57
2018-02-09T10:56:35.916Z,54.83
2018-02-09T10:59:03.385Z,62.10
2018-02-09T11:01:37.520Z,56.90
2018-02-09T11:04:05.753Z,53.43
2018-02-09T11:06:33.214Z,61.60
2018-02-09T11:09:00.670Z,61.10
2018-02-09T11:11:28.131Z,57.00
2018-02-09T11:13:55.594Z,61.03
2018-02-09T11:16:23.053Z,56.60
2018-02-09T11:18:50.516Z,57.97
2018-02-09T11:21:17.960Z,60.37
2018-02-09T11:23:45.421Z,56.77
2018-02-09T11:26:12.882Z,58.13
2018-02-09T11:28:40.337Z,56.17
2018-02-09T11:31:07.784Z,65.53
2018-02-09T11:33:35.248Z,58.33
2018-02-09T11:36:02.701Z,62.00
2018-02-09T11:38:30.165Z,56.80
2018-02-09T11:40:57.613Z,60.50
2018-02-09T11:43:25.106Z,61.67
2018-02-09T11:45:53.321Z,55.33
2018-02-09T11:48:20.793Z,58.30
2018-02-09T11:50:48.252Z,62.20
2018-02-09T11:53:15.710Z,63.23
2018-02-09T11:55:43.168Z,67.93
2018-02-09T11:58:11.387Z,59.70
2018-02-09T12:00:39.613Z,57.87
2018-02-09T12:03:07.732Z,58.97
2018-02-09T12:05:35.972Z,56.37
2018-02-09T12:08:03.413Z,64.07
2018-02-09T12:10:30.888Z,70.43
2018-02-09T12:12:58.497Z,68.73
2018-02-09T12:15:25.974Z,67.10
2018-02-09T12:17:53.424Z,57.77
2018-02-09T12:20:20.893Z,67.87
2018-02-09T12:22:48.345Z,63.20
2018-02-09T12:25:15.814Z,59.63
2018-02-09T12:27:44.037Z,56.43
2018-02-09T12:30:12.261Z,65.30
2018-02-09T12:32:39.712Z,60.47
2018-02-09T12:35:07.182Z,66.53
2018-02-09T12:37:34.661Z,66.00
2018-02-09T12:40:02.116Z,67.60
2018-02-09T12:42:29.567Z,71.27
2018-02-09T12:44:57.026Z,66.87
2018-02-09T12:47:24.473Z,62.83
2018-02-09T12:49:51.929Z,61.90
2018-02-09T12:52:19.392Z,63.10
2018-02-09T12:54:46.852Z,58.20
2018-02-09T12:57:14.308Z,60.90
2018-02-09T12:59:41.756Z,62.23
2018-02-09T13:02:09.216Z,59.03
2018-02-09T13:04:36.668Z,59.10
2018-02-09T13:07:04.120Z,57.67
2018-02-09T13:09:31.584Z,60.87
2018-02-09T13:11:59.045Z,49.20
2018-02-09T13:14:38.385Z,52.17
2018-02-09T13:17:05.849Z,52.90
2018-02-09T13:19:33.306Z,60.37
2018-02-09T13:22:00.766Z,58.77
2018-02-09T13:24:29.006Z,58.50
2018-02-09T13:26:56.469Z,56.63
2018-02-09T13:29:23.926Z,54.23
2018-02-09T13:31:51.389Z,57.07
2018-02-09T13:34:18.846Z,51.57
2018-02-09T13:39:54.653Z,53.67
2018-02-09T13:42:22.885Z,47.43
2018-02-09T13:44:50.332Z,46.63
2018-02-09T13:47:17.794Z,47.63
2018-02-09T13:49:45.253Z,40.17
2018-02-09T13:52:12.721Z,49.50
2018-02-09T13:54:40.172Z,52.50
2018-02-09T13:57:07.637Z,55.70
2018-02-09T13:59:35.099Z,50.90
2018-02-09T14:02:02.579Z,49.77
2018-02-09T14:04:30.788Z,51.80
2018-02-09T14:06:58.251Z,49.07
2018-02-09T14:09:25.868Z,50.70
2018-02-09T14:11:54.108Z,52.60
2018-02-09T14:14:21.570Z,53.27
2018-02-09T14:16:49.032Z,47.47
2018-02-09T14:19:16.483Z,48.27
2018-02-09T14:21:43.938Z,49.00
2018-02-09T14:24:11.401Z,48.63
2018-02-09T14:26:38.858Z,44.10
2018-02-09T14:29:06.313Z,51.60
2018-02-09T14:31:33.768Z,49.13
2018-02-09T14:34:01.238Z,47.00
2018-02-09T14:36:28.689Z,41.70
2018-02-09T14:38:56.154Z,50.60
2018-02-09T14:41:24.377Z,43.37
2018-02-09T14:43:51.843Z,53.87
2018-02-09T14:46:19.302Z,45.53
2018-02-09T14:48:46.757Z,57.33
2018-02-09T14:51:14.204Z,42.33
2018-02-09T14:53:41.671Z,42.07
2018-02-09T14:56:09.133Z,50.30
2018-02-09T14:58:36.597Z,42.17
2018-02-09T15:01:04.049Z,43.40
2018-02-09T15:03:31.525Z,44.13
2018-02-09T15:05:58.977Z,44.37
2018-02-09T15:08:26.438Z,44.03
2018-02-09T15:10:53.894Z,39.87
2018-02-09T15:13:21.362Z,51.50
2018-02-09T15:15:48.805Z,43.93
2018-02-09T15:18:16.261Z,42.57
2018-02-09T15:20:43.721Z,43.80
2018-02-09T15:23:11.168Z,41.50
2018-02-09T15:25:38.652Z,40.77
2018-02-09T15:28:06.884Z,41.10
2018-02-09T15:30:34.341Z,40.17
2018-02-09T15:33:01.797Z,42.83
2018-02-09T15:35:29.261Z,43.10
2018-02-09T15:37:56.713Z,43.07
2018-02-09T15:40:24.173Z,41.83
2018-02-09T15:42:51.628Z,45.97
2018-02-09T15:45:19.084Z,45.10
2018-02-09T15:47:46.549Z,41.17
2018-02-09T15:50:14.009Z,43.83
2018-02-09T15:52:41.460Z,45.57
2018-02-09T15:55:08.922Z,43.30
2018-02-09T15:57:36.433Z,40.27
2018-02-09T16:00:03.836Z,45.80
2018-02-09T16:02:31.284Z,46.17
2018-02-09T16:04:58.754Z,46.97
2018-02-09T16:07:26.208Z,43.80
2018-02-09T16:09:53.666Z,45.73
2018-02-09T16:12:21.125Z,47.93
2018-02-09T16:14:48.581Z,48.80
2018-02-09T16:17:16.036Z,47.23
2018-02-09T16:19:43.488Z,48.47
2018-02-09T16:22:10.949Z,46.53
2018-02-09T16:24:38.392Z,56.13
2018-02-09T16:27:05.887Z,52.80
2018-02-09T16:29:34.108Z,43.80
2018-02-09T16:32:01.580Z,43.40
2018-02-09T16:34:29.036Z,46.77
2018-02-09T16:36:56.505Z,49.93
2018-02-09T16:39:23.956Z,53.70
2018-02-09T16:41:51.412Z,57.07
2018-02-09T16:44:18.864Z,62.50
2018-02-09T16:46:47.097Z,57.90
2018-02-09T16:49:14.557Z,47.03
2018-02-09T16:51:42.021Z,53.47
2018-02-09T16:54:09.477Z,54.80
2018-02-09T16:56:36.941Z,53.40
2018-02-09T16:59:04.404Z,59.43
2018-02-09T17:01:31.871Z,49.30
2018-02-09T17:03:59.329Z,58.93
2018-02-09T17:06:26.789Z,55.43
2018-02-09T17:08:54.263Z,56.93
2018-02-09T17:11:21.715Z,56.70
2018-02-09T17:13:49.200Z,58.13
2018-02-09T17:16:17.509Z,57.67
2018-02-09T17:18:44.988Z,56.83
2018-02-09T17:21:12.446Z,54.77
2018-02-09T17:23:39.892Z,62.37
2018-02-09T17:26:07.400Z,54.80
2018-02-09T17:28:34.844Z,55.20
2018-02-09T17:31:02.304Z,52.50
2018-02-09T17:33:29.778Z,54.60
2018-02-09T17:35:57.992Z,54.70
2018-02-09T17:38:25.461Z,58.93
2018-02-09T17:40:52.930Z,61.80
2018-02-09T17:43:20.382Z,59.73
2018-02-09T17:45:48.642Z,63.60
2018-02-09T17:48:16.097Z,57.17
2018-02-09T17:50:43.548Z,59.27
2018-02-09T17:53:11.010Z,60.93
2018-02-09T17:55:38.464Z,52.40
2018-02-09T17:58:05.923Z,53.03
2018-02-09T18:00:33.378Z,55.67
2018-02-09T18:03:00.842Z,61.67
2018-02-09T18:05:28.297Z,51.73
2018-02-09T18:07:55.761Z,58.57
2018-02-09T18:10:23.224Z,63.13
2018-02-09T18:12:50.686Z,53.57
2018-02-09T18:15:18.140Z,57.77
2018-02-09T18:17:45.596Z,56.80
2018-02-09T18:20:13.064Z,63.67
2018-02-09T18:22:40.524Z,60.80
2018-02-09T18:25:07.976Z,65.87
2018-02-09T18:27:35.435Z,58.37
2018-02-09T18:30:02.898Z,69.63
2018-02-09T18:32:30.357Z,67.83
2018-02-09T18:34:57.813Z,60.63
2018-02-09T18:37:25.301Z,63.40
2018-02-09T18:39:52.771Z,59.50
2018-02-09T18:42:20.226Z,61.80
2018-02-09T18:44:47.684Z,61.97
2018-02-09T18:47:15.143Z,56.93
2018-02-09T18:49:42.610Z,59.70
2018-02-09T18:52:10.060Z,83.33
2018-02-09T18:54:37.529Z,65.53
2018-02-09T18:57:04.983Z,61.50
2018-02-09T18:59:32.440Z,73.40
2018-02-09T19:01:59.889Z,57.83
2018-02-09T19:04:27.385Z,58.30
2018-02-09T19:06:54.821Z,59.77
2018-02-09T19:09:22.284Z,57.57
2018-02-09T19:11:49.733Z,59.90
2018-02-09T19:14:17.199Z,54.63
2018-02-09T19:16:44.655Z,55.53
2018-02-09T19:19:12.122Z,53.73
2018-02-09T19:21:39.572Z,60.20
2018-02-09T19:24:07.038Z,62.87
2018-02-09T19:26:34.497Z,59.17
2018-02-09T19:29:01.977Z,54.47
2018-02-09T19:31:30.193Z,53.90
2018-02-09T19:33:57.657Z,56.67
2018-02-09T19:36:25.117Z,56.13
2018-02-09T19:38:52.569Z,55.10
2018-02-09T19:41:20.026Z,56.27
2018-02-09T19:43:47.486Z,60.87
2018-02-09T19:46:14.941Z,52.83
2018-02-09T19:48:43.202Z,52.63
2018-02-09T19:51:10.652Z,57.67
2018-02-09T19:53:38.106Z,56.27
2018-02-09T19:56:05.564Z,54.37
2018-02-09T19:58:33.025Z,55.00
2018-02-09T20:01:00.480Z,51.83
2018-02-09T20:03:27.941Z,56.17
2018-02-09T20:05:55.405Z,53.03
2018-02-09T20:08:22.863Z,50.83
2018-02-09T20:10:50.329Z,55.80
2018-02-09T20:13:17.786Z,54.20
2018-02-09T20:15:45.245Z,56.57
2018-02-09T20:18:12.701Z,55.70
2018-02-09T20:20:40.161Z,56.37
2018-02-09T20:23:07.617Z,48.03
2018-02-09T20:25:35.087Z,54.10
2018-02-09T20:28:02.545Z,52.23
2018-02-09T20:30:30.000Z,53.07
2018-02-09T20:32:57.468Z,53.40
2018-02-09T20:35:24.949Z,55.70
2018-02-09T20:37:53.160Z,55.23
2018-02-09T20:40:20.624Z,52.30
2018-02-09T20:42:48.847Z,51.80
2018-02-09T20:45:17.069Z,53.80
2018-02-09T20:47:44.524Z,55.90
2018-02-09T20:50:11.988Z,50.50
2018-02-09T20:52:39.440Z,54.50
2018-02-09T20:55:06.905Z,63.23
2018-02-09T20:57:34.357Z,57.77
2018-02-09T21:00:01.837Z,56.27
2018-02-09T21:02:29.290Z,54.17
2018-02-09T21:04:56.749Z,52.37
2018-02-09T21:07:24.211Z,53.33
2018-02-09T21:09:51.707Z,58.10
2018-02-09T21:12:19.253Z,63.37
2018-02-09T21:14:46.658Z,58.20
2018-02-09T21:17:14.116Z,56.30
2018-02-09T21:19:41.604Z,58.33
2018-02-09T21:22:09.064Z,60.83
2018-02-09T21:24:36.508Z,59.50
2018-02-09T21:27:03.975Z,63.07
2018-02-09T21:29:31.420Z,54.17
2018-02-09T21:31:58.877Z,46.80
2018-02-09T21:34:26.328Z,49.50
2018-02-09T21:36:53.789Z,53.50
2018-02-09T21:39:21.241Z,50.63
2018-02-09T21:41:48.700Z,55.80
2018-02-09T21:44:16.156Z,53.40
2018-02-09T21:46:43.624Z,49.00
2018-02-09T21:49:11.075Z,53.60
2018-02-09T21:51:38.546Z,50.77
2018-02-09T21:54:06.761Z,51.47
2018-02-09T21:56:34.225Z,48.80
2018-02-09T21:59:01.676Z,54.43
2018-02-09T22:01:29.156Z,51.53
2018-02-09T22:03:56.612Z,51.10
2018-02-09T22:06:24.077Z,52.97
2018-02-09T22:08:51.539Z,50.57
2018-02-09T22:11:19.017Z,52.90
2018-02-09T22:13:47.250Z,52.07
2018-02-09T22:16:14.705Z,47.93
2018-02-09T22:18:42.178Z,53.00
2018-02-09T22:21:09.634Z,51.80
2018-02-09T22:23:37.097Z,47.43
2018-02-09T22:26:04.553Z,57.10
2018-02-09T22:28:32.017Z,61.67
2018-02-09T22:30:59.464Z,53.73
2018-02-09T22:33:26.924Z,57.30
2018-02-09T22:35:54.377Z,49.97
2018-02-09T22:38:21.837Z,51.70
2018-02-09T22:40:49.292Z,51.37
2018-02-09T22:43:16.749Z,57.60
2018-02-09T22:45:44.206Z,55.33
2018-02-09T22:48:11.665Z,52.93
2018-02-09T22:50:39.133Z,53.20
2018-02-09T22:53:06.590Z,54.00
2018-02-09T22:55:34.061Z,54.83
2018-02-09T22:58:02.293Z,56.33
2018-02-09T23:00:29.741Z,50.90
2018-02-09T23:02:57.221Z,48.93
2018-02-09T23:05:24.672Z,55.73
2018-02-09T23:07:52.129Z,55.17
2018-02-09T23:10:19.597Z,52.83
2018-02-09T23:12:47.051Z,56.90
2018-02-09T23:15:14.512Z,51.60
2018-02-09T23:17:41.965Z,58.93
2018-02-09T23:20:09.424Z,51.60
2018-02-09T23:22:36.880Z,50.30
2018-02-09T23:25:04.345Z,52.57
2018-02-09T23:27:32.569Z,51.13
2018-02-09T23:30:00.046Z,48.87
2018-02-09T23:32:27.500Z,47.67
2018-02-09T23:34:55.725Z,51.27
2018-02-09T23:37:23.178Z,52.60
2018-02-09T23:39:51.405Z,52.73
2018-02-09T23:42:18.862Z,58.37
2018-02-09T23:44:46.320Z,49.30
2018-02-09T23:47:13.777Z,55.63
2018-02-09T23:49:41.246Z,54.03
2018-02-09T23:52:08.692Z,54.40
2018-02-09T23:54:36.180Z,55.40
2018-02-09T23:57:04.404Z,60.30
2018-02-09T23:59:31.865Z,46.97
